sensor_id;sensor_type;location;lat;lon;timestamp;temperature;humidity
12520;DHT22;6325;49.540;8.364;2023-05-18T01:26:01;9.60;99.90
12520;DHT22;6325;49.540;8.364;2023-05-18T01:28:31;9.40;99.90
12520;DHT22;6325;49.540;8.364;2023-05-18T01:30:59;9.40;99.90
12520;DHT22;6325;49.540;8.364;2023-05-18T01:33:26;9.00;99.90
12520;DHT22;6325;49.540;8.364;2023-05-18T01:35:52;9.30;99.90
12520;DHT22;6325;49.540;8.364;2023-05-18T01:38:22;9.70;99.90
12520;DHT22;6325;49.540;8.364;2023-05-18T01:40:55;9.50;99.90
12520;DHT22;6325;49.540;8.364;2023-05-18T01:43:29;9.20;99.90
12520;DHT22;6325;49.540;8.364;2023-05-18T01:46:02;9.30;99.90
12520;DHT22;6325;49.540;8.364;2023-05-18T01:48:34;9.60;99.90
12520;DHT22;6325;49.540;8.364;2023-05-18T01:51:03;8.80;99.90
12520;DHT22;6325;49.540;8.364;2023-05-18T01:53:34;8.50;99.90
12520;DHT22;6325;49.540;8.364;2023-05-18T01:56:04;9.00;99.90
12520;DHT22;6325;49.540;8.364;2023-05-18T01:58:34;8.90;99.90
12520;DHT22;6325;49.540;8.364;2023-05-18T02:01:02;8.50;99.90
12520;DHT22;6325;49.540;8.364;2023-05-18T02:03:30;8.90;99.90
12520;DHT22;6325;49.540;8.364;2023-05-18T02:05:57;9.00;99.90
12520;DHT22;6325;49.540;8.364;2023-05-18T02:08:24;8.80;99.90
12520;DHT22;6325;49.540;8.364;2023-05-18T02:10:52;8.30;99.90
12520;DHT22;6325;49.540;8.364;2023-05-18T02:13:19;8.80;99.90
12520;DHT22;6325;49.540;8.364;2023-05-18T02:15:47;8.70;99.90
12520;DHT22;6325;49.540;8.364;2023-05-18T02:18:14;8.80;99.90
12520;DHT22;6325;49.540;8.364;2023-05-18T02:20:40;9.00;99.90
12520;DHT22;6325;49.540;8.364;2023-05-18T02:23:07;9.30;99.90
12520;DHT22;6325;49.540;8.364;2023-05-18T02:25:34;8.70;99.90
12520;DHT22;6325;49.540;8.364;2023-05-18T02:28:01;8.90;99.90
12520;DHT22;6325;49.540;8.364;2023-05-18T02:30:28;8.70;99.90
12520;DHT22;6325;49.540;8.364;2023-05-18T02:32:58;9.00;99.90
12520;DHT22;6325;49.540;8.364;2023-05-18T02:35:25;8.70;99.90
12520;DHT22;6325;49.540;8.364;2023-05-18T02:37:52;8.80;99.90
12520;DHT22;6325;49.540;8.364;2023-05-18T02:40:20;8.80;99.90
12520;DHT22;6325;49.540;8.364;2023-05-18T02:42:46;8.60;99.90
12520;DHT22;6325;49.540;8.364;2023-05-18T02:45:13;8.60;99.90
12520;DHT22;6325;49.540;8.364;2023-05-18T02:47:40;9.00;99.90
12520;DHT22;6325;49.540;8.364;2023-05-18T02:50:10;8.50;99.90
12520;DHT22;6325;49.540;8.364;2023-05-18T02:52:37;8.50;99.90
12520;DHT22;6325;49.540;8.364;2023-05-18T02:55:04;9.00;99.90
12520;DHT22;6325;49.540;8.364;2023-05-18T02:57:31;8.50;99.90
12520;DHT22;6325;49.540;8.364;2023-05-18T02:59:58;8.50;99.90
12520;DHT22;6325;49.540;8.364;2023-05-18T03:02:25;7.90;99.90
12520;DHT22;6325;49.540;8.364;2023-05-18T03:04:52;8.90;99.90
12520;DHT22;6325;49.540;8.364;2023-05-18T03:07:23;8.50;99.90
12520;DHT22;6325;49.540;8.364;2023-05-18T03:09:51;8.50;99.90
12520;DHT22;6325;49.540;8.364;2023-05-18T03:12:18;7.80;99.90
12520;DHT22;6325;49.540;8.364;2023-05-18T03:14:45;8.30;99.90
12520;DHT22;6325;49.540;8.364;2023-05-18T03:17:12;8.40;99.90
12520;DHT22;6325;49.540;8.364;2023-05-18T03:19:39;8.70;99.90
12520;DHT22;6325;49.540;8.364;2023-05-18T03:22:06;8.50;99.90
12520;DHT22;6325;49.540;8.364;2023-05-18T03:24:34;8.80;99.90
12520;DHT22;6325;49.540;8.364;2023-05-18T03:27:04;8.20;99.90
12520;DHT22;6325;49.540;8.364;2023-05-18T03:29:31;8.60;99.90
12520;DHT22;6325;49.540;8.364;2023-05-18T03:31:58;8.50;99.90
12520;DHT22;6325;49.540;8.364;2023-05-18T03:34:25;7.90;99.90
12520;DHT22;6325;49.540;8.364;2023-05-18T03:36:52;8.10;99.90
12520;DHT22;6325;49.540;8.364;2023-05-18T03:39:19;8.00;99.90
12520;DHT22;6325;49.540;8.364;2023-05-18T03:41:47;7.70;99.90
12520;DHT22;6325;49.540;8.364;2023-05-18T03:44:14;8.00;99.90
12520;DHT22;6325;49.540;8.364;2023-05-18T03:46:41;8.40;99.90
12520;DHT22;6325;49.540;8.364;2023-05-18T03:49:08;8.00;99.90
12520;DHT22;6325;49.540;8.364;2023-05-18T03:51:34;7.80;99.90
12520;DHT22;6325;49.540;8.364;2023-05-18T03:54:01;8.00;99.90
12520;DHT22;6325;49.540;8.364;2023-05-18T03:56:28;7.90;99.90
12520;DHT22;6325;49.540;8.364;2023-05-18T03:58:57;7.90;99.90
12520;DHT22;6325;49.540;8.364;2023-05-18T04:01:24;7.60;99.90
12520;DHT22;6325;49.540;8.364;2023-05-18T04:03:54;7.60;99.90
12520;DHT22;6325;49.540;8.364;2023-05-18T04:06:22;7.90;99.90
12520;DHT22;6325;49.540;8.364;2023-05-18T04:08:50;8.00;99.90
12520;DHT22;6325;49.540;8.364;2023-05-18T04:11:17;8.20;99.90
12520;DHT22;6325;49.540;8.364;2023-05-18T04:13:44;8.20;99.90
12520;DHT22;6325;49.540;8.364;2023-05-18T04:16:12;8.30;99.90
12520;DHT22;6325;49.540;8.364;2023-05-18T04:18:40;7.90;99.90
12520;DHT22;6325;49.540;8.364;2023-05-18T04:21:07;8.00;99.90
12520;DHT22;6325;49.540;8.364;2023-05-18T04:23:34;7.90;99.90
12520;DHT22;6325;49.540;8.364;2023-05-18T04:26:03;7.90;99.90
12520;DHT22;6325;49.540;8.364;2023-05-18T04:28:31;7.80;99.90
12520;DHT22;6325;49.540;8.364;2023-05-18T04:30:58;7.80;99.90
12520;DHT22;6325;49.540;8.364;2023-05-18T04:33:27;8.00;99.90
12520;DHT22;6325;49.540;8.364;2023-05-18T04:35:54;8.00;99.90
12520;DHT22;6325;49.540;8.364;2023-05-18T04:38:23;8.60;99.90
12520;DHT22;6325;49.540;8.364;2023-05-18T04:40:50;8.00;99.90
12520;DHT22;6325;49.540;8.364;2023-05-18T04:43:20;7.70;99.90
12520;DHT22;6325;49.540;8.364;2023-05-18T04:45:47;8.00;99.90
12520;DHT22;6325;49.540;8.364;2023-05-18T04:48:15;8.00;99.90
12520;DHT22;6325;49.540;8.364;2023-05-18T04:50:44;8.00;99.90
12520;DHT22;6325;49.540;8.364;2023-05-18T04:53:11;8.30;99.90
12520;DHT22;6325;49.540;8.364;2023-05-18T04:55:38;8.30;99.90
12520;DHT22;6325;49.540;8.364;2023-05-18T04:58:07;8.20;99.90
12520;DHT22;6325;49.540;8.364;2023-05-18T05:00:34;8.20;99.90
12520;DHT22;6325;49.540;8.364;2023-05-18T05:03:02;8.30;99.90
12520;DHT22;6325;49.540;8.364;2023-05-18T05:05:28;8.20;99.90
12520;DHT22;6325;49.540;8.364;2023-05-18T05:07:57;8.20;99.90
12520;DHT22;6325;49.540;8.364;2023-05-18T05:10:24;8.30;99.90
12520;DHT22;6325;49.540;8.364;2023-05-18T05:12:52;7.90;99.90
12520;DHT22;6325;49.540;8.364;2023-05-18T05:15:19;8.30;99.90
12520;DHT22;6325;49.540;8.364;2023-05-18T05:17:47;8.30;99.90
12520;DHT22;6325;49.540;8.364;2023-05-18T05:20:14;8.40;99.90
12520;DHT22;6325;49.540;8.364;2023-05-18T05:22:41;8.40;99.90
12520;DHT22;6325;49.540;8.364;2023-05-18T05:25:09;8.50;99.90
12520;DHT22;6325;49.540;8.364;2023-05-18T05:27:36;8.40;99.90
12520;DHT22;6325;49.540;8.364;2023-05-18T05:30:04;8.60;99.90
12520;DHT22;6325;49.540;8.364;2023-05-18T05:32:31;9.10;99.90
12520;DHT22;6325;49.540;8.364;2023-05-18T05:34:59;8.30;99.90
12520;DHT22;6325;49.540;8.364;2023-05-18T05:37:26;8.70;99.90
12520;DHT22;6325;49.540;8.364;2023-05-18T05:39:52;8.70;99.90
12520;DHT22;6325;49.540;8.364;2023-05-18T05:42:21;9.40;99.90
12520;DHT22;6325;49.540;8.364;2023-05-18T05:44:47;9.30;99.90
12520;DHT22;6325;49.540;8.364;2023-05-18T05:47:14;8.90;99.90
12520;DHT22;6325;49.540;8.364;2023-05-18T05:49:41;9.10;99.90
12520;DHT22;6325;49.540;8.364;2023-05-18T05:52:08;9.60;99.90
12520;DHT22;6325;49.540;8.364;2023-05-18T05:54:34;9.00;99.90
12520;DHT22;6325;49.540;8.364;2023-05-18T05:57:01;9.30;99.90
12520;DHT22;6325;49.540;8.364;2023-05-18T05:59:29;9.30;99.90
12520;DHT22;6325;49.540;8.364;2023-05-18T06:01:56;9.40;99.90
12520;DHT22;6325;49.540;8.364;2023-05-18T06:04:23;9.40;99.90
12520;DHT22;6325;49.540;8.364;2023-05-18T06:06:50;9.40;99.90
12520;DHT22;6325;49.540;8.364;2023-05-18T06:09:16;9.50;99.90
12520;DHT22;6325;49.540;8.364;2023-05-18T06:11:43;9.40;99.90
12520;DHT22;6325;49.540;8.364;2023-05-18T06:14:10;9.60;99.90
12520;DHT22;6325;49.540;8.364;2023-05-18T06:16:38;9.20;99.90
12520;DHT22;6325;49.540;8.364;2023-05-18T06:19:05;10.10;99.90
12520;DHT22;6325;49.540;8.364;2023-05-18T06:21:32;9.90;99.90
12520;DHT22;6325;49.540;8.364;2023-05-18T06:23:59;9.60;99.90
12520;DHT22;6325;49.540;8.364;2023-05-18T06:26:25;10.10;99.90
12520;DHT22;6325;49.540;8.364;2023-05-18T06:28:52;9.40;99.90
12520;DHT22;6325;49.540;8.364;2023-05-18T06:31:19;10.10;99.90
12520;DHT22;6325;49.540;8.364;2023-05-18T06:33:48;10.50;99.90
12520;DHT22;6325;49.540;8.364;2023-05-18T06:36:14;10.30;99.90
12520;DHT22;6325;49.540;8.364;2023-05-18T06:38:41;10.00;99.90
12520;DHT22;6325;49.540;8.364;2023-05-18T06:41:08;10.50;99.90
12520;DHT22;6325;49.540;8.364;2023-05-18T06:43:35;10.60;99.90
12520;DHT22;6325;49.540;8.364;2023-05-18T06:46:02;10.70;99.90
12520;DHT22;6325;49.540;8.364;2023-05-18T06:48:28;10.70;99.90
12520;DHT22;6325;49.540;8.364;2023-05-18T06:50:57;10.80;99.90
12520;DHT22;6325;49.540;8.364;2023-05-18T06:53:23;10.90;99.90
12520;DHT22;6325;49.540;8.364;2023-05-18T06:55:50;11.00;99.90
12520;DHT22;6325;49.540;8.364;2023-05-18T06:58:17;11.10;99.90
12520;DHT22;6325;49.540;8.364;2023-05-18T07:00:44;11.20;99.90
12520;DHT22;6325;49.540;8.364;2023-05-18T07:03:10;11.00;99.90
12520;DHT22;6325;49.540;8.364;2023-05-18T07:05:37;10.80;99.90
12520;DHT22;6325;49.540;8.364;2023-05-18T07:08:05;12.00;99.90
12520;DHT22;6325;49.540;8.364;2023-05-18T07:10:32;11.40;99.90
12520;DHT22;6325;49.540;8.364;2023-05-18T07:12:59;12.00;99.90
12520;DHT22;6325;49.540;8.364;2023-05-18T07:15:26;12.10;99.90
12520;DHT22;6325;49.540;8.364;2023-05-18T07:17:53;11.80;99.90
12520;DHT22;6325;49.540;8.364;2023-05-18T07:20:20;11.90;99.90
12520;DHT22;6325;49.540;8.364;2023-05-18T07:22:47;12.10;99.90
12520;DHT22;6325;49.540;8.364;2023-05-18T07:25:15;11.70;99.90
12520;DHT22;6325;49.540;8.364;2023-05-18T07:27:42;11.70;99.90
12520;DHT22;6325;49.540;8.364;2023-05-18T07:30:09;11.70;99.90
12520;DHT22;6325;49.540;8.364;2023-05-18T07:32:36;12.20;99.90
12520;DHT22;6325;49.540;8.364;2023-05-18T07:35:03;12.00;99.90
12520;DHT22;6325;49.540;8.364;2023-05-18T07:37:30;12.70;99.90
12520;DHT22;6325;49.540;8.364;2023-05-18T07:39:57;12.80;99.90
12520;DHT22;6325;49.540;8.364;2023-05-18T07:42:25;12.90;99.90
12520;DHT22;6325;49.540;8.364;2023-05-18T07:44:52;13.00;99.90
12520;DHT22;6325;49.540;8.364;2023-05-18T07:47:19;12.80;99.90
12520;DHT22;6325;49.540;8.364;2023-05-18T07:49:46;13.20;99.90
12520;DHT22;6325;49.540;8.364;2023-05-18T07:52:13;12.90;99.90
12520;DHT22;6325;49.540;8.364;2023-05-18T07:54:39;13.50;99.90
12520;DHT22;6325;49.540;8.364;2023-05-18T07:57:06;14.10;99.90
12520;DHT22;6325;49.540;8.364;2023-05-18T07:59:34;13.90;99.90
12520;DHT22;6325;49.540;8.364;2023-05-18T08:02:01;13.60;99.90
12520;DHT22;6325;49.540;8.364;2023-05-18T08:04:28;14.00;99.90
12520;DHT22;6325;49.540;8.364;2023-05-18T08:06:55;14.20;99.90
12520;DHT22;6325;49.540;8.364;2023-05-18T08:09:25;13.90;99.90
12520;DHT22;6325;49.540;8.364;2023-05-18T08:11:51;14.00;99.90
12520;DHT22;6325;49.540;8.364;2023-05-18T08:14:19;14.40;99.90
12520;DHT22;6325;49.540;8.364;2023-05-18T08:16:47;14.20;99.90
12520;DHT22;6325;49.540;8.364;2023-05-18T08:19:14;13.80;99.90
12520;DHT22;6325;49.540;8.364;2023-05-18T08:21:40;14.40;99.90
12520;DHT22;6325;49.540;8.364;2023-05-18T08:24:08;14.40;99.90
12520;DHT22;6325;49.540;8.364;2023-05-18T08:26:35;14.50;99.90
12520;DHT22;6325;49.540;8.364;2023-05-18T08:29:02;14.60;99.90
12520;DHT22;6325;49.540;8.364;2023-05-18T08:31:34;14.70;99.90
12520;DHT22;6325;49.540;8.364;2023-05-18T08:34:02;14.60;99.90
12520;DHT22;6325;49.540;8.364;2023-05-18T08:36:30;15.00;99.90
12520;DHT22;6325;49.540;8.364;2023-05-18T08:38:57;15.10;99.90
12520;DHT22;6325;49.540;8.364;2023-05-18T08:41:28;15.50;99.90
12520;DHT22;6325;49.540;8.364;2023-05-18T08:44:00;14.90;99.90
12520;DHT22;6325;49.540;8.364;2023-05-18T08:46:30;15.50;99.90
12520;DHT22;6325;49.540;8.364;2023-05-18T08:49:00;15.80;99.90
12520;DHT22;6325;49.540;8.364;2023-05-18T08:51:29;15.40;99.90
12520;DHT22;6325;49.540;8.364;2023-05-18T08:53:59;15.80;99.90
12520;DHT22;6325;49.540;8.364;2023-05-18T08:56:30;15.90;99.90
12520;DHT22;6325;49.540;8.364;2023-05-18T08:58:57;16.00;99.90
12520;DHT22;6325;49.540;8.364;2023-05-18T09:01:25;15.80;99.90
12520;DHT22;6325;49.540;8.364;2023-05-18T09:03:55;15.80;99.90
12520;DHT22;6325;49.540;8.364;2023-05-18T09:06:23;16.30;99.90
12520;DHT22;6325;49.540;8.364;2023-05-18T09:08:52;16.00;99.90
12520;DHT22;6325;49.540;8.364;2023-05-18T09:11:21;16.50;99.90
12520;DHT22;6325;49.540;8.364;2023-05-18T09:13:49;16.50;99.90
12520;DHT22;6325;49.540;8.364;2023-05-18T09:16:16;17.20;99.90
12520;DHT22;6325;49.540;8.364;2023-05-18T09:18:43;17.10;99.90
12520;DHT22;6325;49.540;8.364;2023-05-18T09:21:09;17.70;99.90
12520;DHT22;6325;49.540;8.364;2023-05-18T09:23:39;17.50;99.90
12520;DHT22;6325;49.540;8.364;2023-05-18T09:26:07;17.10;99.90
12520;DHT22;6325;49.540;8.364;2023-05-18T09:28:36;17.10;99.90
12520;DHT22;6325;49.540;8.364;2023-05-18T09:31:05;17.30;99.90
12520;DHT22;6325;49.540;8.364;2023-05-18T09:33:35;16.60;99.90
12520;DHT22;6325;49.540;8.364;2023-05-18T09:36:04;17.00;99.90
12520;DHT22;6325;49.540;8.364;2023-05-18T09:38:35;17.10;99.90
12520;DHT22;6325;49.540;8.364;2023-05-18T09:41:02;17.20;99.90
12520;DHT22;6325;49.540;8.364;2023-05-18T09:43:30;18.00;99.90
12520;DHT22;6325;49.540;8.364;2023-05-18T09:46:05;17.60;99.90
12520;DHT22;6325;49.540;8.364;2023-05-18T09:48:34;17.70;99.90
12520;DHT22;6325;49.540;8.364;2023-05-18T09:51:01;17.90;99.90
12520;DHT22;6325;49.540;8.364;2023-05-18T09:53:27;17.90;99.90
12520;DHT22;6325;49.540;8.364;2023-05-18T09:55:54;18.20;99.90
12520;DHT22;6325;49.540;8.364;2023-05-18T09:58:21;17.70;99.90
12520;DHT22;6325;49.540;8.364;2023-05-18T10:00:49;17.60;99.90
12520;DHT22;6325;49.540;8.364;2023-05-18T10:03:19;17.50;99.90
12520;DHT22;6325;49.540;8.364;2023-05-18T10:05:47;17.90;99.90
12520;DHT22;6325;49.540;8.364;2023-05-18T10:08:14;17.60;99.90
12520;DHT22;6325;49.540;8.364;2023-05-18T10:10:46;18.30;99.90
12520;DHT22;6325;49.540;8.364;2023-05-18T10:13:16;17.40;99.50
12520;DHT22;6325;49.540;8.364;2023-05-18T10:15:46;17.90;99.90
12520;DHT22;6325;49.540;8.364;2023-05-18T10:18:19;18.00;99.90
12520;DHT22;6325;49.540;8.364;2023-05-18T10:20:48;17.70;99.90
12520;DHT22;6325;49.540;8.364;2023-05-18T10:23:16;18.50;99.90
12520;DHT22;6325;49.540;8.364;2023-05-18T10:25:44;18.50;99.90
12520;DHT22;6325;49.540;8.364;2023-05-18T10:28:16;19.20;99.70
12520;DHT22;6325;49.540;8.364;2023-05-18T10:30:44;19.00;97.00
12520;DHT22;6325;49.540;8.364;2023-05-18T10:33:12;19.40;99.90
12520;DHT22;6325;49.540;8.364;2023-05-18T10:35:44;18.90;99.90
12520;DHT22;6325;49.540;8.364;2023-05-18T10:38:16;19.10;99.80
12520;DHT22;6325;49.540;8.364;2023-05-18T10:40:47;19.00;99.90
12520;DHT22;6325;49.540;8.364;2023-05-18T10:43:15;18.80;97.80
12520;DHT22;6325;49.540;8.364;2023-05-18T10:45:46;18.80;99.90
12520;DHT22;6325;49.540;8.364;2023-05-18T10:48:14;18.80;99.10
12520;DHT22;6325;49.540;8.364;2023-05-18T10:50:42;19.50;99.90
12520;DHT22;6325;49.540;8.364;2023-05-18T10:53:10;19.30;99.90
12520;DHT22;6325;49.540;8.364;2023-05-18T10:55:38;19.70;98.60
12520;DHT22;6325;49.540;8.364;2023-05-18T10:58:08;20.40;97.70
12520;DHT22;6325;49.540;8.364;2023-05-18T11:00:39;20.50;93.70
12520;DHT22;6325;49.540;8.364;2023-05-18T11:03:09;20.80;96.90
12520;DHT22;6325;49.540;8.364;2023-05-18T11:05:37;21.00;94.90
12520;DHT22;6325;49.540;8.364;2023-05-18T11:08:07;20.70;92.70
12520;DHT22;6325;49.540;8.364;2023-05-18T11:10:38;20.60;93.50
12520;DHT22;6325;49.540;8.364;2023-05-18T11:13:05;20.70;91.00
12520;DHT22;6325;49.540;8.364;2023-05-18T11:16:01;20.40;91.60
12520;DHT22;6325;49.540;8.364;2023-05-18T11:18:40;19.80;91.50
12520;DHT22;6325;49.540;8.364;2023-05-18T11:21:22;20.40;90.70
12520;DHT22;6325;49.540;8.364;2023-05-18T11:24:28;20.60;90.70
12520;DHT22;6325;49.540;8.364;2023-05-18T11:26:56;20.40;91.60
12520;DHT22;6325;49.540;8.364;2023-05-18T11:29:30;20.20;91.40
12520;DHT22;6325;49.540;8.364;2023-05-18T11:31:57;20.10;89.60
12520;DHT22;6325;49.540;8.364;2023-05-18T11:34:34;20.20;92.50
12520;DHT22;6325;49.540;8.364;2023-05-18T11:37:02;20.30;90.00
12520;DHT22;6325;49.540;8.364;2023-05-18T11:39:31;20.20;89.80
12520;DHT22;6325;49.540;8.364;2023-05-18T11:41:58;20.70;90.00
12520;DHT22;6325;49.540;8.364;2023-05-18T11:44:27;20.50;91.70
12520;DHT22;6325;49.540;8.364;2023-05-18T11:46:58;20.50;89.00
12520;DHT22;6325;49.540;8.364;2023-05-18T11:49:26;20.10;86.40
12520;DHT22;6325;49.540;8.364;2023-05-18T11:51:55;20.20;88.70
12520;DHT22;6325;49.540;8.364;2023-05-18T11:54:23;20.60;91.10
12520;DHT22;6325;49.540;8.364;2023-05-18T11:56:52;20.70;91.30
12520;DHT22;6325;49.540;8.364;2023-05-18T11:59:29;21.00;90.00
12520;DHT22;6325;49.540;8.364;2023-05-18T12:02:00;21.70;86.60
12520;DHT22;6325;49.540;8.364;2023-05-18T12:04:27;21.20;84.60
12520;DHT22;6325;49.540;8.364;2023-05-18T12:06:56;21.20;87.10
12520;DHT22;6325;49.540;8.364;2023-05-18T12:09:23;21.70;81.50
12520;DHT22;6325;49.540;8.364;2023-05-18T12:11:51;21.50;82.00
12520;DHT22;6325;49.540;8.364;2023-05-18T12:14:18;21.60;84.60
12520;DHT22;6325;49.540;8.364;2023-05-18T12:16:47;21.60;85.60
12520;DHT22;6325;49.540;8.364;2023-05-18T12:19:14;22.60;84.30
12520;DHT22;6325;49.540;8.364;2023-05-18T12:21:41;22.80;88.90
12520;DHT22;6325;49.540;8.364;2023-05-18T12:24:08;22.50;85.70
12520;DHT22;6325;49.540;8.364;2023-05-18T12:26:35;22.70;81.60
12520;DHT22;6325;49.540;8.364;2023-05-18T12:29:04;22.90;81.20
12520;DHT22;6325;49.540;8.364;2023-05-18T12:31:31;22.60;80.50
12520;DHT22;6325;49.540;8.364;2023-05-18T12:34:00;22.80;76.90
12520;DHT22;6325;49.540;8.364;2023-05-18T12:36:28;23.20;82.90
12520;DHT22;6325;49.540;8.364;2023-05-18T12:38:55;23.30;78.40
12520;DHT22;6325;49.540;8.364;2023-05-18T12:41:22;23.30;81.50
12520;DHT22;6325;49.540;8.364;2023-05-18T12:43:51;23.40;77.80
12520;DHT22;6325;49.540;8.364;2023-05-18T12:46:21;23.40;78.60
12520;DHT22;6325;49.540;8.364;2023-05-18T12:48:55;23.40;77.30
12520;DHT22;6325;49.540;8.364;2023-05-18T12:51:23;23.70;75.90
12520;DHT22;6325;49.540;8.364;2023-05-18T12:53:55;23.40;73.10
12520;DHT22;6325;49.540;8.364;2023-05-18T12:56:22;23.90;78.40
12520;DHT22;6325;49.540;8.364;2023-05-18T12:58:57;23.70;73.70
12520;DHT22;6325;49.540;8.364;2023-05-18T13:01:26;23.80;73.40
12520;DHT22;6325;49.540;8.364;2023-05-18T13:03:56;24.20;72.50
12520;DHT22;6325;49.540;8.364;2023-05-18T13:06:24;23.60;67.70
12520;DHT22;6325;49.540;8.364;2023-05-18T13:08:54;23.50;71.20
12520;DHT22;6325;49.540;8.364;2023-05-18T13:11:24;23.50;71.40
12520;DHT22;6325;49.540;8.364;2023-05-18T13:13:59;23.50;74.40
12520;DHT22;6325;49.540;8.364;2023-05-18T13:16:27;23.50;69.90
12520;DHT22;6325;49.540;8.364;2023-05-18T13:18:57;24.10;70.70
12520;DHT22;6325;49.540;8.364;2023-05-18T13:21:24;24.50;70.20
12520;DHT22;6325;49.540;8.364;2023-05-18T13:23:51;24.80;70.50
12520;DHT22;6325;49.540;8.364;2023-05-18T13:26:19;24.30;68.00
12520;DHT22;6325;49.540;8.364;2023-05-18T13:28:48;24.50;68.70
12520;DHT22;6325;49.540;8.364;2023-05-18T13:31:15;24.70;68.90
12520;DHT22;6325;49.540;8.364;2023-05-18T13:33:43;24.60;66.70
12520;DHT22;6325;49.540;8.364;2023-05-18T13:36:10;24.60;67.30
12520;DHT22;6325;49.540;8.364;2023-05-18T13:38:37;24.70;66.30
12520;DHT22;6325;49.540;8.364;2023-05-18T13:41:04;24.40;66.60
12520;DHT22;6325;49.540;8.364;2023-05-18T13:43:31;24.80;70.30
12520;DHT22;6325;49.540;8.364;2023-05-18T13:45:58;25.00;66.20
12520;DHT22;6325;49.540;8.364;2023-05-18T13:48:25;24.80;66.10
12520;DHT22;6325;49.540;8.364;2023-05-18T13:50:54;23.90;62.50
12520;DHT22;6325;49.540;8.364;2023-05-18T13:53:22;23.20;64.50
12520;DHT22;6325;49.540;8.364;2023-05-18T13:55:49;22.50;67.70
12520;DHT22;6325;49.540;8.364;2023-05-18T13:58:15;23.10;66.70
12520;DHT22;6325;49.540;8.364;2023-05-18T14:00:43;23.10;64.60
12520;DHT22;6325;49.540;8.364;2023-05-18T14:03:11;23.20;68.60
12520;DHT22;6325;49.540;8.364;2023-05-18T14:05:39;23.50;66.30
12520;DHT22;6325;49.540;8.364;2023-05-18T14:08:08;23.70;72.20
12520;DHT22;6325;49.540;8.364;2023-05-18T14:10:35;24.20;70.70
12520;DHT22;6325;49.540;8.364;2023-05-18T14:13:01;24.90;71.70
12520;DHT22;6325;49.540;8.364;2023-05-18T14:15:28;24.30;67.50
12520;DHT22;6325;49.540;8.364;2023-05-18T14:17:55;24.40;66.70
12520;DHT22;6325;49.540;8.364;2023-05-18T14:20:22;24.10;65.70
12520;DHT22;6325;49.540;8.364;2023-05-18T14:22:48;24.10;66.50
12520;DHT22;6325;49.540;8.364;2023-05-18T14:25:17;24.90;62.10
12520;DHT22;6325;49.540;8.364;2023-05-18T14:27:44;24.90;67.20
12520;DHT22;6325;49.540;8.364;2023-05-18T14:30:11;24.90;67.10
12520;DHT22;6325;49.540;8.364;2023-05-18T14:32:37;25.20;61.70
12520;DHT22;6325;49.540;8.364;2023-05-18T14:35:05;24.60;63.10
12520;DHT22;6325;49.540;8.364;2023-05-18T14:37:32;25.10;63.80
12520;DHT22;6325;49.540;8.364;2023-05-18T14:39:59;25.30;64.10
12520;DHT22;6325;49.540;8.364;2023-05-18T14:42:27;25.30;64.60
12520;DHT22;6325;49.540;8.364;2023-05-18T14:44:54;24.80;60.50
12520;DHT22;6325;49.540;8.364;2023-05-18T14:47:20;24.40;60.20
12520;DHT22;6325;49.540;8.364;2023-05-18T14:49:47;25.00;63.40
12520;DHT22;6325;49.540;8.364;2023-05-18T14:52:14;24.70;63.60
12520;DHT22;6325;49.540;8.364;2023-05-18T14:54:41;25.00;63.30
12520;DHT22;6325;49.540;8.364;2023-05-18T14:57:08;25.20;60.20
12520;DHT22;6325;49.540;8.364;2023-05-18T14:59:36;25.10;59.90
12520;DHT22;6325;49.540;8.364;2023-05-18T15:02:03;24.90;60.90
12520;DHT22;6325;49.540;8.364;2023-05-18T15:04:31;24.40;62.00
12520;DHT22;6325;49.540;8.364;2023-05-18T15:06:58;24.70;65.20
12520;DHT22;6325;49.540;8.364;2023-05-18T15:09:25;24.70;63.00
12520;DHT22;6325;49.540;8.364;2023-05-18T15:11:52;24.10;64.50
12520;DHT22;6325;49.540;8.364;2023-05-18T15:14:20;24.40;66.40
12520;DHT22;6325;49.540;8.364;2023-05-18T15:16:48;24.30;60.00
12520;DHT22;6325;49.540;8.364;2023-05-18T15:19:14;24.40;56.70
12520;DHT22;6325;49.540;8.364;2023-05-18T15:21:41;23.80;58.80
12520;DHT22;6325;49.540;8.364;2023-05-18T15:24:09;23.90;61.20
12520;DHT22;6325;49.540;8.364;2023-05-18T15:26:36;24.60;61.90
12520;DHT22;6325;49.540;8.364;2023-05-18T15:29:03;24.70;62.20
12520;DHT22;6325;49.540;8.364;2023-05-18T15:31:30;25.20;60.30
12520;DHT22;6325;49.540;8.364;2023-05-18T15:33:59;24.60;58.60
12520;DHT22;6325;49.540;8.364;2023-05-18T15:36:26;24.00;58.10
12520;DHT22;6325;49.540;8.364;2023-05-18T15:38:53;24.10;58.80
12520;DHT22;6325;49.540;8.364;2023-05-18T15:41:20;24.40;59.40
12520;DHT22;6325;49.540;8.364;2023-05-18T15:43:47;24.10;59.30
12520;DHT22;6325;49.540;8.364;2023-05-18T15:46:14;24.90;59.70
12520;DHT22;6325;49.540;8.364;2023-05-18T15:48:41;25.20;62.00
12520;DHT22;6325;49.540;8.364;2023-05-18T15:51:09;25.60;62.40
12520;DHT22;6325;49.540;8.364;2023-05-18T15:53:35;25.90;59.00
12520;DHT22;6325;49.540;8.364;2023-05-18T15:56:02;25.80;56.90
12520;DHT22;6325;49.540;8.364;2023-05-18T15:58:29;25.60;57.20
12520;DHT22;6325;49.540;8.364;2023-05-18T16:00:56;25.30;60.50
12520;DHT22;6325;49.540;8.364;2023-05-18T16:03:24;24.90;57.20
12520;DHT22;6325;49.540;8.364;2023-05-18T16:05:51;25.40;56.40
12520;DHT22;6325;49.540;8.364;2023-05-18T16:08:19;25.50;57.10
12520;DHT22;6325;49.540;8.364;2023-05-18T16:10:45;25.60;56.20
12520;DHT22;6325;49.540;8.364;2023-05-18T16:13:12;25.40;55.80
12520;DHT22;6325;49.540;8.364;2023-05-18T16:15:39;25.20;53.80
12520;DHT22;6325;49.540;8.364;2023-05-18T16:18:06;25.30;55.70
12520;DHT22;6325;49.540;8.364;2023-05-18T16:20:33;25.60;54.90
12520;DHT22;6325;49.540;8.364;2023-05-18T16:22:59;25.40;55.00
12520;DHT22;6325;49.540;8.364;2023-05-18T16:25:28;25.70;56.30
12520;DHT22;6325;49.540;8.364;2023-05-18T16:27:56;26.10;56.80
12520;DHT22;6325;49.540;8.364;2023-05-18T16:30:23;26.30;55.00
12520;DHT22;6325;49.540;8.364;2023-05-18T16:32:50;26.40;55.10
12520;DHT22;6325;49.540;8.364;2023-05-18T16:35:17;26.50;56.30
12520;DHT22;6325;49.540;8.364;2023-05-18T16:37:43;26.00;57.60
12520;DHT22;6325;49.540;8.364;2023-05-18T16:40:10;26.70;57.00
12520;DHT22;6325;49.540;8.364;2023-05-18T16:42:39;26.90;57.80
12520;DHT22;6325;49.540;8.364;2023-05-18T16:45:06;26.80;57.70
12520;DHT22;6325;49.540;8.364;2023-05-18T16:47:33;27.70;58.00
12520;DHT22;6325;49.540;8.364;2023-05-18T16:49:59;27.00;58.30
12520;DHT22;6325;49.540;8.364;2023-05-18T16:52:26;27.40;57.80
12520;DHT22;6325;49.540;8.364;2023-05-18T16:54:53;27.40;57.10
12520;DHT22;6325;49.540;8.364;2023-05-18T16:57:20;27.20;56.60
12520;DHT22;6325;49.540;8.364;2023-05-18T16:59:48;27.10;52.60
12520;DHT22;6325;49.540;8.364;2023-05-18T17:02:15;26.60;52.50
12520;DHT22;6325;49.540;8.364;2023-05-18T17:04:42;26.10;53.10
12520;DHT22;6325;49.540;8.364;2023-05-18T17:07:11;26.30;54.70
12520;DHT22;6325;49.540;8.364;2023-05-18T17:09:38;26.20;57.40
12520;DHT22;6325;49.540;8.364;2023-05-18T17:12:07;26.10;55.20
12520;DHT22;6325;49.540;8.364;2023-05-18T17:14:34;26.00;55.50
12520;DHT22;6325;49.540;8.364;2023-05-18T17:17:02;25.90;54.00
12520;DHT22;6325;49.540;8.364;2023-05-18T17:19:29;25.50;55.60